Time;durP1;ratioP1;P1;durP2;ratioP2;P2;SDS_P1;SDS_P2;PMS_P1;PMS_P2;Temp;Humidity;BMP_temperature;BMP_pressure;BME280_temperature;BME280_humidity;BME280_pressure;Samples;Min_cycle;Max_cycle;Signal;HPM_P1;HPM_P2
2023/01/20 00:00:34;;;;;;;22.70;11.60;;;1.10;99.90;;;;;;4981417;28;20022;-65
2023/01/20 00:03:00;;;;;;;29.30;11.77;;;1.10;99.90;;;;;;4985180;28;20032;-64
2023/01/20 00:05:25;;;;;;;21.85;12.00;;;1.10;99.90;;;;;;4984798;28;20044;-64
2023/01/20 00:07:51;;;;;;;27.10;12.95;;;1.00;99.90;;;;;;4977180;28;20022;-64
2023/01/20 00:10:17;;;;;;;25.02;12.70;;;1.00;99.90;;;;;;4985432;28;20057;-64
2023/01/20 00:12:42;;;;;;;24.88;12.18;;;1.00;99.90;;;;;;4982878;28;20488;-64
2023/01/20 00:15:09;;;;;;;24.48;12.63;;;1.00;99.90;;;;;;4978315;28;20057;-65
2023/01/20 00:17:34;;;;;;;19.75;11.60;;;1.00;99.90;;;;;;4989867;28;20073;-66
2023/01/20 00:20:00;;;;;;;23.13;12.13;;;0.90;99.90;;;;;;4996442;28;20026;-64
2023/01/20 00:22:26;;;;;;;26.83;13.00;;;0.80;99.90;;;;;;4984010;28;20046;-65
2023/01/20 00:24:51;;;;;;;32.92;15.82;;;0.70;99.90;;;;;;4986619;28;20030;-64
2023/01/20 00:27:17;;;;;;;30.90;15.02;;;0.70;99.90;;;;;;5001738;28;20684;-64
2023/01/20 00:29:45;;;;;;;30.38;14.43;;;0.60;99.90;;;;;;4975579;28;20038;-64
2023/01/20 00:32:11;;;;;;;24.55;11.82;;;0.60;99.90;;;;;;4975594;28;20034;-66
2023/01/20 00:34:37;;;;;;;20.52;11.70;;;0.60;99.90;;;;;;4985421;28;20030;-64
2023/01/20 00:37:02;;;;;;;21.70;8.75;;;0.60;99.90;;;;;;4995120;28;20081;-66
2023/01/20 00:39:28;;;;;;;19.05;10.15;;;0.50;99.90;;;;;;4985842;28;20129;-63
2023/01/20 00:41:54;;;;;;;16.13;9.77;;;0.50;99.90;;;;;;4986008;28;20038;-63
2023/01/20 00:44:19;;;;;;;19.45;9.70;;;0.50;99.90;;;;;;4971882;28;20130;-64
2023/01/20 00:46:45;;;;;;;14.82;8.82;;;0.60;99.90;;;;;;4992427;28;20030;-64
2023/01/20 00:49:11;;;;;;;19.48;10.45;;;0.60;99.90;;;;;;4984954;28;20022;-64
2023/01/20 00:51:37;;;;;;;21.35;9.55;;;0.60;99.90;;;;;;4986430;28;20624;-63
2023/01/20 00:54:03;;;;;;;21.35;9.48;;;0.70;99.90;;;;;;4992945;28;20083;-64
2023/01/20 00:56:28;;;;;;;18.02;9.68;;;0.70;99.90;;;;;;4999306;28;20084;-64
2023/01/20 00:58:54;;;;;;;18.20;9.13;;;0.80;99.90;;;;;;4996897;28;20138;-64
2023/01/20 01:01:21;;;;;;;18.63;9.27;;;0.80;99.90;;;;;;4983559;28;20042;-63
2023/01/20 01:03:47;;;;;;;20.17;9.90;;;0.80;99.90;;;;;;4988329;28;20033;-64
2023/01/20 01:06:15;;;;;;;23.55;10.50;;;0.80;99.90;;;;;;4986390;28;20400;-62
2023/01/20 01:08:43;;;;;;;20.58;8.30;;;0.80;99.90;;;;;;4983991;28;20038;-65
2023/01/20 01:11:09;;;;;;;15.63;8.48;;;0.80;99.90;;;;;;4976655;28;20089;-65
2023/01/20 01:13:37;;;;;;;15.90;8.80;;;0.80;99.90;;;;;;4987449;28;20078;-65
2023/01/20 01:16:03;;;;;;;22.02;9.70;;;0.80;99.90;;;;;;4969752;28;20030;-64
2023/01/20 01:18:29;;;;;;;17.65;9.45;;;0.80;99.90;;;;;;4987462;28;20560;-64
2023/01/20 01:20:54;;;;;;;21.95;10.07;;;0.80;99.90;;;;;;4992407;28;20037;-64
2023/01/20 01:23:20;;;;;;;18.42;8.38;;;0.90;99.90;;;;;;4982088;28;20396;-65
2023/01/20 01:25:45;;;;;;;21.35;8.45;;;0.90;99.90;;;;;;4989476;28;20173;-63
2023/01/20 01:28:11;;;;;;;17.20;9.93;;;0.90;99.90;;;;;;4985149;28;20042;-65
2023/01/20 01:30:36;;;;;;;21.40;9.32;;;0.90;99.90;;;;;;4984754;28;20539;-66
2023/01/20 01:33:02;;;;;;;30.73;10.95;;;0.90;99.90;;;;;;4986157;28;20026;-64
2023/01/20 01:35:28;;;;;;;19.95;9.65;;;1.00;99.90;;;;;;4985879;28;20419;-65
2023/01/20 01:37:53;;;;;;;20.70;9.40;;;1.00;99.90;;;;;;4986895;28;20034;-66
2023/01/20 01:40:19;;;;;;;17.73;8.63;;;1.00;99.90;;;;;;4985673;28;20038;-65
2023/01/20 01:42:44;;;;;;;24.65;10.02;;;1.00;99.90;;;;;;4970526;28;20530;-64
2023/01/20 01:45:10;;;;;;;15.35;8.70;;;1.00;99.90;;;;;;4989711;28;20074;-64
2023/01/20 01:47:51;;;;;;;16.52;9.80;;;1.10;99.90;;;;;;4989083;28;20092;-65
2023/01/20 01:50:29;;;;;;;17.88;9.63;;;1.00;99.90;;;;;;4994751;28;20105;-63
2023/01/20 01:52:55;;;;;;;18.52;9.35;;;1.00;99.90;;;;;;4994573;28;20216;-65
2023/01/20 01:55:26;;;;;;;18.58;8.90;;;1.00;99.90;;;;;;4989173;28;20672;-65
2023/01/20 01:57:53;;;;;;;19.05;9.07;;;1.00;99.90;;;;;;4992419;28;20526;-64
2023/01/20 02:00:20;;;;;;;20.75;9.02;;;1.10;99.90;;;;;;4991634;28;20066;-62
2023/01/20 02:02:45;;;;;;;20.52;8.77;;;1.10;99.90;;;;;;4991802;28;20645;-64
2023/01/20 02:05:13;;;;;;;23.92;9.43;;;1.10;99.90;;;;;;4985218;28;20148;-66
2023/01/20 02:07:41;;;;;;;19.88;8.95;;;1.10;99.90;;;;;;4988426;28;20030;-64
2023/01/20 02:10:07;;;;;;;23.58;9.13;;;1.10;99.90;;;;;;4990095;28;20034;-65
2023/01/20 02:12:33;;;;;;;19.98;9.20;;;1.10;99.90;;;;;;4993450;28;20530;-64
2023/01/20 02:15:01;;;;;;;23.52;8.38;;;1.00;99.90;;;;;;4992940;28;20034;-63
2023/01/20 02:18:11;;;;;;;18.20;8.18;;;0.90;99.90;;;;;;4988673;28;20125;-65
2023/01/20 02:21:14;;;;;;;20.63;9.13;;;0.70;99.90;;;;;;4990355;28;20026;-64
2023/01/20 02:24:11;;;;;;;18.45;8.20;;;0.60;99.90;;;;;;4988207;28;20050;-65
2023/01/20 02:27:00;;;;;;;14.07;8.10;;;0.50;99.90;;;;;;4999156;28;20119;-65
2023/01/20 02:29:38;;;;;;;17.45;8.13;;;0.40;99.90;;;;;;4997857;28;20038;-64
2023/01/20 02:32:06;;;;;;;21.17;10.25;;;0.40;99.90;;;;;;4977666;28;20027;-64
2023/01/20 02:34:58;;;;;;;17.33;8.60;;;0.50;99.90;;;;;;4976982;28;20104;-64
2023/01/20 02:37:29;;;;;;;19.55;9.00;;;0.50;99.90;;;;;;4985242;28;20476;-64
2023/01/20 02:40:06;;;;;;;19.02;10.15;;;0.60;99.90;;;;;;4987293;28;20833;-64
2023/01/20 02:42:50;;;;;;;20.65;8.88;;;0.60;99.90;;;;;;4988136;28;20049;-64
2023/01/20 02:45:27;;;;;;;21.10;10.52;;;0.70;99.90;;;;;;4986188;28;20682;-64
2023/01/20 02:48:08;;;;;;;18.42;8.55;;;0.70;99.90;;;;;;4985792;28;20057;-64
2023/01/20 02:50:39;;;;;;;19.30;9.23;;;0.80;99.90;;;;;;4979966;28;20539;-64
2023/01/20 02:53:07;;;;;;;22.60;9.30;;;0.80;99.90;;;;;;4988600;28;20345;-64
2023/01/20 02:55:45;;;;;;;21.90;10.30;;;0.80;99.90;;;;;;4986965;28;20034;-65
2023/01/20 02:58:28;;;;;;;22.75;10.32;;;0.80;99.90;;;;;;4986078;28;20085;-64
2023/01/20 03:01:06;;;;;;;24.75;9.40;;;0.90;99.90;;;;;;4985401;28;20037;-64
2023/01/20 03:03:37;;;;;;;21.30;9.73;;;0.90;99.90;;;;;;4982206;28;20561;-64
2023/01/20 03:06:09;;;;;;;19.65;9.15;;;0.90;99.90;;;;;;4982715;28;20026;-65
2023/01/20 03:08:36;;;;;;;27.42;9.10;;;1.00;99.90;;;;;;5036592;23;20050;-64
2023/01/20 03:11:04;;;;;;;25.05;9.57;;;1.00;99.90;;;;;;5012613;28;20105;-65
2023/01/20 03:13:49;;;;;;;25.80;9.75;;;1.00;99.90;;;;;;5014833;28;20036;-66
2023/01/20 03:16:18;;;;;;;22.98;9.13;;;0.90;99.90;;;;;;5005314;28;20035;-65
2023/01/20 03:18:44;;;;;;;20.23;9.55;;;1.00;99.90;;;;;;5010245;28;20026;-65
2023/01/20 03:21:12;;;;;;;15.63;8.35;;;1.00;99.90;;;;;;5024396;28;20109;-66
2023/01/20 03:23:41;;;;;;;19.80;7.70;;;1.00;99.90;;;;;;5020478;28;20033;-64
2023/01/20 03:26:10;;;;;;;21.13;8.50;;;1.00;99.90;;;;;;5019151;28;20022;-66
2023/01/20 03:28:36;;;;;;;16.63;8.52;;;1.00;99.90;;;;;;5015141;28;20084;-66
2023/01/20 03:31:11;;;;;;;20.15;9.60;;;1.00;99.90;;;;;;5000686;28;20530;-66
2023/01/20 03:33:37;;;;;;;23.60;10.07;;;1.00;99.90;;;;;;5007802;28;20780;-64
2023/01/20 03:36:03;;;;;;;20.98;9.27;;;1.00;99.90;;;;;;5012462;28;20095;-66
2023/01/20 03:38:29;;;;;;;21.10;9.18;;;1.00;99.90;;;;;;4995397;28;20088;-64
2023/01/20 03:41:03;;;;;;;25.45;10.13;;;0.90;99.90;;;;;;5012512;28;20022;-66
2023/01/20 03:43:35;;;;;;;;;;;1.00;99.90;;;;;;4992909;28;20518;-65
2023/01/20 03:46:19;;;;;;;19.05;8.73;;;1.00;99.90;;;;;;5005625;28;19960;-64
2023/01/20 03:48:58;;;;;;;20.67;9.75;;;1.00;99.90;;;;;;5005849;28;20116;-65
2023/01/20 03:51:30;;;;;;;18.70;9.52;;;1.00;99.90;;;;;;5008027;28;20450;-64
2023/01/20 03:54:01;;;;;;;19.33;9.45;;;1.00;99.90;;;;;;5007439;28;20035;-64
2023/01/20 03:56:36;;;;;;;19.15;10.00;;;1.00;99.90;;;;;;5011907;28;20492;-65
2023/01/20 03:59:03;;;;;;;19.70;9.75;;;1.00;99.90;;;;;;5006869;28;20033;-67
2023/01/20 04:01:35;;;;;;;16.30;7.95;;;1.00;99.90;;;;;;5008184;28;20044;-66
2023/01/20 04:04:02;;;;;;;18.52;9.13;;;1.00;99.90;;;;;;5001964;28;20032;-65
2023/01/20 04:06:30;;;;;;;19.52;10.02;;;1.00;99.90;;;;;;5000472;28;20041;-66
2023/01/20 04:09:01;;;;;;;17.55;9.98;;;1.00;99.90;;;;;;5008804;28;20567;-65
2023/01/20 04:11:28;;;;;;;19.10;10.75;;;1.00;99.90;;;;;;5013703;28;20084;-65
2023/01/20 04:13:54;;;;;;;20.33;9.73;;;1.00;99.90;;;;;;5015352;28;20034;-65
2023/01/20 04:16:21;;;;;;;21.55;10.85;;;1.00;99.90;;;;;;5007498;28;20037;-65
2023/01/20 04:18:49;;;;;;;22.00;10.57;;;1.00;99.90;;;;;;5019874;28;20028;-65
2023/01/20 04:21:31;;;;;;;21.23;10.60;;;0.90;99.90;;;;;;5008052;28;20032;-66
2023/01/20 04:24:26;;;;;;;21.02;10.63;;;0.90;99.90;;;;;;5008013;28;20080;-65
2023/01/20 04:26:52;;;;;;;18.02;9.02;;;0.90;99.90;;;;;;4994435;28;20113;-64
2023/01/20 04:29:18;;;;;;;18.38;8.82;;;0.90;99.90;;;;;;5007672;28;20124;-65
2023/01/20 04:31:43;;;;;;;20.75;9.90;;;0.90;99.90;;;;;;5001163;28;20391;-64
2023/01/20 04:34:12;;;;;;;22.77;9.38;;;0.80;99.90;;;;;;5004302;28;20026;-63
2023/01/20 04:36:38;;;;;;;25.05;9.20;;;0.80;99.90;;;;;;5011934;28;20523;-65
2023/01/20 04:39:03;;;;;;;25.63;10.15;;;0.80;99.90;;;;;;5017809;28;20014;-66
2023/01/20 04:41:29;;;;;;;19.15;10.38;;;0.70;99.90;;;;;;5018730;28;20507;-65
2023/01/20 04:43:54;;;;;;;18.75;10.18;;;0.70;99.90;;;;;;4994234;28;20050;-64
2023/01/20 04:46:20;;;;;;;17.58;9.15;;;0.70;99.90;;;;;;5010296;28;20105;-65
2023/01/20 04:48:46;;;;;;;18.42;8.60;;;0.60;99.90;;;;;;5006658;28;20022;-65
2023/01/20 04:51:12;;;;;;;21.33;10.00;;;0.60;99.90;;;;;;5009514;28;20030;-65
2023/01/20 04:53:37;;;;;;;22.02;10.07;;;0.60;99.90;;;;;;5002431;28;20133;-64
2023/01/20 04:56:03;;;;;;;16.83;9.45;;;0.60;99.90;;;;;;5009937;28;20560;-65
2023/01/20 04:58:29;;;;;;;21.55;10.00;;;0.60;99.90;;;;;;5005525;28;20026;-65
2023/01/20 05:00:54;;;;;;;22.20;10.45;;;0.60;99.90;;;;;;5014025;28;20629;-65
2023/01/20 05:03:20;;;;;;;23.98;10.85;;;0.60;99.90;;;;;;5001930;28;20097;-65
2023/01/20 05:05:52;;;;;;;20.73;10.05;;;0.60;99.90;;;;;;5004649;28;20042;-65
2023/01/20 05:08:18;;;;;;;25.77;12.23;;;0.60;99.90;;;;;;4999412;28;20120;-65
2023/01/20 05:10:44;;;;;;;24.25;11.50;;;0.60;99.90;;;;;;5008218;28;20112;-66
2023/01/20 05:13:09;;;;;;;19.60;11.02;;;0.60;99.90;;;;;;5013676;28;20107;-66
2023/01/20 05:15:35;;;;;;;20.92;9.88;;;0.60;99.90;;;;;;5025232;28;20475;-66
2023/01/20 05:18:00;;;;;;;18.63;9.52;;;0.60;99.90;;;;;;5003639;28;20030;-65
2023/01/20 05:20:26;;;;;;;19.77;8.80;;;0.60;99.90;;;;;;5011644;28;20026;-65
2023/01/20 05:22:52;;;;;;;18.60;9.32;;;0.50;99.90;;;;;;5017592;28;20057;-65
2023/01/20 05:25:17;;;;;;;18.08;8.73;;;0.60;99.90;;;;;;5018061;28;20033;-66
2023/01/20 05:27:43;;;;;;;21.67;8.15;;;0.50;99.90;;;;;;4997933;28;20044;-65
2023/01/20 05:30:10;;;;;;;16.75;8.80;;;0.60;99.90;;;;;;5014579;28;20038;-66
2023/01/20 05:32:35;;;;;;;16.00;8.27;;;0.60;99.90;;;;;;4986946;28;20059;-66
2023/01/20 05:35:01;;;;;;;22.05;8.93;;;0.60;99.90;;;;;;5018157;28;20057;-65
2023/01/20 05:37:27;;;;;;;17.58;8.05;;;0.60;99.90;;;;;;5018568;28;20021;-66
2023/01/20 05:39:52;;;;;;;22.08;8.50;;;0.60;99.90;;;;;;5010612;28;20049;-65
2023/01/20 05:42:18;;;;;;;15.57;8.30;;;0.60;99.90;;;;;;5006467;28;20479;-65
2023/01/20 05:44:43;;;;;;;17.25;7.28;;;0.60;99.90;;;;;;4987404;28;20595;-65
2023/01/20 05:47:09;;;;;;;21.08;7.22;;;0.60;99.90;;;;;;5011810;28;20072;-65
2023/01/20 05:49:35;;;;;;;15.93;7.22;;;0.60;99.90;;;;;;5007424;28;20384;-65
2023/01/20 05:52:00;;;;;;;14.15;7.47;;;0.60;99.90;;;;;;5017489;28;20083;-65
2023/01/20 05:54:26;;;;;;;22.25;7.95;;;0.60;99.90;;;;;;5007878;28;20061;-64
2023/01/20 05:56:51;;;;;;;15.20;6.80;;;0.60;99.90;;;;;;5013478;28;20710;-66
2023/01/20 05:59:17;;;;;;;13.68;7.28;;;0.60;99.90;;;;;;5012948;28;20054;-64
2023/01/20 06:01:43;;;;;;;14.75;7.93;;;0.60;99.90;;;;;;5012651;28;20503;-65
2023/01/20 06:04:09;;;;;;;18.75;7.88;;;0.60;99.90;;;;;;4986870;28;20037;-65
2023/01/20 06:06:34;;;;;;;19.77;8.18;;;0.60;99.90;;;;;;4998660;28;20121;-65
2023/01/20 06:09:00;;;;;;;19.40;7.88;;;0.60;99.90;;;;;;5006262;28;20057;-65
2023/01/20 06:11:26;;;;;;;21.50;8.38;;;0.60;99.90;;;;;;5003648;28;20053;-64
2023/01/20 06:13:51;;;;;;;14.63;8.02;;;0.60;99.90;;;;;;5003636;28;20048;-66
2023/01/20 06:16:17;;;;;;;23.05;8.93;;;0.70;99.90;;;;;;5002641;28;20033;-64
2023/01/20 06:18:43;;;;;;;22.17;9.75;;;0.60;99.90;;;;;;5001996;28;20094;-64
2023/01/20 06:21:09;;;;;;;20.00;8.38;;;0.60;99.90;;;;;;5003235;28;20515;-66
2023/01/20 06:23:35;;;;;;;18.70;8.90;;;0.60;99.90;;;;;;5002623;28;20034;-65
2023/01/20 06:26:10;;;;;;;20.10;9.43;;;0.60;99.90;;;;;;5003606;28;20939;-66
2023/01/20 06:28:36;;;;;;;13.48;7.45;;;0.60;99.90;;;;;;5002514;28;20073;-65
2023/01/20 06:31:13;;;;;;;18.02;8.73;;;0.60;99.90;;;;;;5001254;28;20061;-65
2023/01/20 06:33:39;;;;;;;17.35;8.18;;;0.60;99.90;;;;;;4999458;28;20033;-65
2023/01/20 06:36:06;;;;;;;19.70;8.38;;;0.70;99.90;;;;;;5007376;28;20088;-65
2023/01/20 06:38:33;;;;;;;15.27;7.22;;;0.60;99.90;;;;;;5007718;28;20104;-65
2023/01/20 06:41:01;;;;;;;18.65;8.80;;;0.70;99.90;;;;;;5011276;28;20041;-65
2023/01/20 06:43:28;;;;;;;15.60;7.88;;;0.70;99.90;;;;;;5007525;28;20447;-65
2023/01/20 06:46:01;;;;;;;16.70;8.45;;;0.60;99.90;;;;;;4991011;28;20057;-67
2023/01/20 06:48:28;;;;;;;20.10;8.43;;;0.60;99.90;;;;;;5008392;28;20088;-65
2023/01/20 06:50:58;;;;;;;15.35;8.15;;;0.60;99.90;;;;;;5017556;28;20495;-65
2023/01/20 06:53:24;;;;;;;18.38;7.43;;;0.60;99.90;;;;;;5010893;28;20476;-65
2023/01/20 06:55:55;;;;;;;16.42;7.28;;;0.60;99.90;;;;;;5013895;28;20088;-65
2023/01/20 06:58:23;;;;;;;14.15;6.80;;;0.60;99.90;;;;;;5008456;28;20018;-65
2023/01/20 07:00:48;;;;;;;13.20;7.03;;;0.60;99.90;;;;;;5015838;28;20079;-65
2023/01/20 07:03:14;;;;;;;22.13;8.90;;;0.60;99.90;;;;;;5017280;28;20038;-66
2023/01/20 07:05:40;;;;;;;15.43;6.65;;;0.60;99.90;;;;;;5020718;28;20041;-65
2023/01/20 07:08:05;;;;;;;12.70;6.80;;;0.50;99.90;;;;;;5012798;28;20022;-66
2023/01/20 07:10:31;;;;;;;14.43;7.82;;;0.50;99.90;;;;;;5008514;28;20034;-66
2023/01/20 07:12:57;;;;;;;14.52;7.25;;;0.50;99.90;;;;;;5007586;28;20385;-65
2023/01/20 07:15:22;;;;;;;14.05;7.00;;;0.50;99.90;;;;;;5008755;28;20037;-66
2023/01/20 07:17:48;;;;;;;14.30;7.30;;;0.50;99.90;;;;;;5012387;28;20483;-65
2023/01/20 07:20:13;;;;;;;19.60;7.32;;;0.50;99.90;;;;;;5008097;28;20038;-65
2023/01/20 07:22:39;;;;;;;14.85;8.20;;;0.50;99.90;;;;;;5012512;28;20042;-67
2023/01/20 07:25:05;;;;;;;19.70;6.90;;;0.50;99.90;;;;;;5007090;28;20431;-65
2023/01/20 07:27:30;;;;;;;22.45;7.40;;;0.50;99.90;;;;;;5007805;28;20037;-65
2023/01/20 07:29:56;;;;;;;12.93;6.40;;;0.50;99.90;;;;;;5014684;28;20037;-64
2023/01/20 07:32:22;;;;;;;15.68;7.40;;;0.50;99.90;;;;;;5005403;28;20029;-64
2023/01/20 07:34:48;;;;;;;12.07;6.32;;;0.50;99.90;;;;;;5000392;28;20033;-68
2023/01/20 07:37:13;;;;;;;12.27;5.32;;;0.50;99.90;;;;;;5004607;28;20033;-65
2023/01/20 07:39:39;;;;;;;14.30;6.10;;;0.50;99.90;;;;;;5001296;28;20404;-66
2023/01/20 07:42:05;;;;;;;17.90;7.22;;;0.50;99.90;;;;;;5005398;28;20061;-66
2023/01/20 07:44:31;;;;;;;15.18;7.28;;;0.60;99.90;;;;;;4983804;28;20061;-65
2023/01/20 07:46:57;;;;;;;13.00;7.20;;;0.60;99.90;;;;;;5001204;28;20108;-64
2023/01/20 07:49:22;;;;;;;19.55;6.82;;;0.60;99.90;;;;;;5000018;28;20868;-65
2023/01/20 07:51:48;;;;;;;18.27;7.25;;;0.70;99.90;;;;;;5013717;28;20026;-65
2023/01/20 07:54:14;;;;;;;14.60;6.40;;;0.70;99.90;;;;;;5009558;28;20030;-65
2023/01/20 07:56:39;;;;;;;17.17;7.57;;;0.70;99.90;;;;;;5004064;28;20141;-65
2023/01/20 07:59:05;;;;;;;14.32;5.93;;;0.70;99.90;;;;;;5003839;28;20541;-64
2023/01/20 08:01:31;;;;;;;17.65;6.75;;;0.70;99.90;;;;;;5008304;28;20783;-64
2023/01/20 08:04:01;;;;;;;13.75;6.57;;;0.70;99.90;;;;;;5006341;28;20032;-65
2023/01/20 08:06:27;;;;;;;13.35;5.95;;;0.70;99.90;;;;;;4995713;28;20133;-66
2023/01/20 08:08:54;;;;;;;19.83;6.45;;;0.80;99.90;;;;;;5004754;28;20037;-65
2023/01/20 08:11:21;;;;;;;16.65;6.80;;;0.80;99.90;;;;;;5010182;28;20666;-65
2023/01/20 08:13:47;;;;;;;13.85;6.30;;;0.90;99.90;;;;;;5009806;28;20039;-64
2023/01/20 08:16:15;;;;;;;14.77;6.43;;;0.90;99.90;;;;;;5016531;28;20034;-65
2023/01/20 08:18:41;;;;;;;10.85;6.28;;;1.00;99.90;;;;;;5009860;28;20030;-66
2023/01/20 08:21:14;;;;;;;15.27;6.05;;;1.10;99.90;;;;;;5005780;28;20026;-65
2023/01/20 08:23:40;;;;;;;13.15;5.95;;;1.10;99.90;;;;;;5003340;28;20100;-66
2023/01/20 08:26:06;;;;;;;12.38;5.72;;;1.10;99.90;;;;;;5005012;28;20637;-65
2023/01/20 08:28:34;;;;;;;68.30;27.10;;;1.10;99.90;;;;;;5006656;28;20026;-65
2023/01/20 08:31:07;;;;;;;61.00;27.88;;;1.20;99.90;;;;;;5005778;28;20030;-66
2023/01/20 08:33:33;;;;;;;22.83;11.25;;;1.20;99.90;;;;;;4993601;28;20033;-65
2023/01/20 08:36:17;;;;;;;15.82;8.20;;;1.20;99.90;;;;;;5010059;28;20459;-67
2023/01/20 08:38:44;;;;;;;13.05;6.60;;;1.30;99.90;;;;;;5008613;28;20604;-66
2023/01/20 08:41:16;;;;;;;14.07;6.35;;;1.30;99.90;;;;;;5003060;28;20503;-65
2023/01/20 08:43:41;;;;;;;12.75;5.57;;;1.40;99.90;;;;;;4986690;28;20034;-66
2023/01/20 08:46:10;;;;;;;15.65;6.38;;;1.50;99.90;;;;;;4987578;28;20048;-64
2023/01/20 08:48:37;;;;;;;14.82;5.50;;;1.50;99.90;;;;;;5018832;28;20133;-65
2023/01/20 08:51:09;;;;;;;12.02;5.40;;;1.50;99.90;;;;;;5015881;28;20041;-65
2023/01/20 08:53:35;;;;;;;11.75;6.00;;;1.50;99.90;;;;;;5007553;28;20037;-65
2023/01/20 08:56:02;;;;;;;12.57;6.28;;;1.50;99.90;;;;;;5012447;28;20034;-65
2023/01/20 08:58:29;;;;;;;13.05;6.22;;;1.60;99.90;;;;;;5008658;28;20029;-65
2023/01/20 09:00:55;;;;;;;13.25;5.03;;;1.70;99.90;;;;;;5008871;28;20083;-66
2023/01/20 09:03:21;;;;;;;13.90;6.57;;;1.80;99.90;;;;;;5012172;28;20025;-66
2023/01/20 09:05:47;;;;;;;13.60;6.25;;;1.70;99.90;;;;;;5018590;28;20045;-65
2023/01/20 09:08:13;;;;;;;13.73;5.43;;;1.80;99.90;;;;;;5010538;28;20037;-65
2023/01/20 09:10:39;;;;;;;16.73;6.85;;;1.90;99.90;;;;;;5019349;28;20046;-64
2023/01/20 09:13:05;;;;;;;19.35;6.55;;;1.90;99.90;;;;;;5016837;28;20399;-66
2023/01/20 09:15:30;;;;;;;11.75;5.95;;;2.00;99.90;;;;;;5014901;28;20105;-66
2023/01/20 09:17:57;;;;;;;9.95;5.10;;;2.10;99.90;;;;;;4990883;28;20447;-66
2023/01/20 09:20:24;;;;;;;14.65;6.13;;;2.20;99.90;;;;;;5005994;28;20589;-64
2023/01/20 09:22:50;;;;;;;11.75;5.32;;;2.30;99.90;;;;;;5016664;28;20026;-66
2023/01/20 09:25:16;;;;;;;8.73;4.55;;;2.40;99.90;;;;;;5021189;28;20026;-66
2023/01/20 09:27:41;;;;;;;10.00;4.70;;;2.50;99.90;;;;;;5022321;28;20732;-66
2023/01/20 09:30:08;;;;;;;13.50;7.22;;;2.60;99.90;;;;;;5012679;28;20037;-65
2023/01/20 09:32:33;;;;;;;13.00;5.68;;;2.60;99.90;;;;;;5004912;28;20018;-65
2023/01/20 09:34:59;;;;;;;10.10;6.05;;;2.60;99.90;;;;;;5003972;28;20115;-66
2023/01/20 09:46:35;;;;;;;13.48;6.43;;;2.20;99.90;;;;;;4988509;28;20045;-65
2023/01/20 09:55:32;;;;;;;15.73;6.22;;;2.20;99.90;;;;;;5001778;28;20045;-65
2023/01/20 09:58:04;;;;;;;14.10;6.43;;;2.40;99.90;;;;;;5005085;28;20566;-65
2023/01/20 10:00:34;;;;;;;13.75;6.20;;;2.70;99.90;;;;;;5019108;28;20066;-66
2023/01/20 10:03:26;;;;;;;12.93;6.50;;;3.00;99.90;;;;;;5006069;28;20056;-65
2023/01/20 10:05:57;;;;;;;13.77;6.35;;;2.90;99.90;;;;;;5001728;28;20041;-65
2023/01/20 10:08:36;;;;;;;11.68;5.13;;;3.00;99.90;;;;;;5005600;28;20360;-65
2023/01/20 10:11:10;;;;;;;10.73;5.95;;;3.10;99.90;;;;;;4999073;28;20030;-65
2023/01/20 10:13:46;;;;;;;;;;;3.10;99.90;;;;;;5002367;28;20030;-66
2023/01/20 10:16:24;;;;;;;10.20;5.00;;;3.10;99.90;;;;;;5005395;28;20389;-65
2023/01/20 10:19:25;;;;;;;14.75;6.13;;;3.00;99.90;;;;;;5002720;28;20026;-65
2023/01/20 10:22:00;;;;;;;12.80;6.35;;;2.90;99.90;;;;;;4989785;28;20045;-64
2023/01/20 10:24:34;;;;;;;11.30;5.97;;;2.80;99.90;;;;;;5007495;28;20021;-65
2023/01/20 10:27:01;;;;;;;11.68;6.03;;;2.70;99.90;;;;;;5018976;28;20072;-65
2023/01/20 10:29:35;;;;;;;9.80;5.30;;;2.60;99.90;;;;;;5009569;28;20054;-65
2023/01/20 10:32:32;;;;;;;16.38;6.80;;;2.60;99.90;;;;;;5019458;28;20101;-66
2023/01/20 10:35:02;;;;;;;14.15;6.22;;;2.60;99.90;;;;;;5007666;28;20395;-64
2023/01/20 10:37:30;;;;;;;10.45;5.32;;;2.70;99.90;;;;;;4995239;28;20057;-65
2023/01/20 10:40:04;;;;;;;17.30;5.65;;;2.70;99.90;;;;;;4993078;28;20025;-66
2023/01/20 10:42:30;;;;;;;21.13;9.30;;;2.70;99.90;;;;;;5022129;28;20028;-65
2023/01/20 10:44:57;;;;;;;27.90;14.70;;;2.70;99.90;;;;;;5000277;28;20417;-66
2023/01/20 10:47:24;;;;;;;15.00;8.60;;;2.80;99.90;;;;;;5020546;28;20030;-65
2023/01/20 10:50:09;;;;;;;9.77;5.47;;;2.60;99.90;;;;;;5005136;28;20053;-66
2023/01/20 10:52:43;;;;;;;;;;;2.60;99.90;;;;;;5005710;28;20396;-65
2023/01/20 10:55:50;;;;;;;12.98;6.70;;;2.70;99.90;;;;;;5009465;28;20028;-66
2023/01/20 10:58:28;;;;;;;20.52;7.95;;;2.90;99.90;;;;;;4978981;28;20045;-67
2023/01/20 11:00:56;;;;;;;13.95;6.97;;;3.10;99.90;;;;;;5017792;28;20025;-65
2023/01/20 11:03:23;;;;;;;10.10;5.40;;;3.00;99.90;;;;;;5007519;28;20506;-65
2023/01/20 11:05:50;;;;;;;15.57;7.30;;;3.00;99.90;;;;;;5006277;28;20493;-65
2023/01/20 11:08:27;;;;;;;13.95;6.32;;;3.10;99.90;;;;;;5001932;28;20034;-65
2023/01/20 11:11:08;;;;;;;16.52;7.30;;;3.30;99.90;;;;;;5007697;28;20064;-65
2023/01/20 11:13:34;;;;;;;14.68;6.75;;;3.30;99.90;;;;;;5007859;28;20121;-65
2023/01/20 11:16:05;;;;;;;15.52;7.25;;;3.30;99.90;;;;;;5009920;28;20120;-67
2023/01/20 11:18:32;;;;;;;14.65;6.15;;;3.30;99.90;;;;;;4999320;28;21021;-65
2023/01/20 11:21:07;;;;;;;13.02;7.55;;;3.50;99.90;;;;;;5010419;28;20026;-67
2023/01/20 11:23:38;;;;;;;16.42;8.65;;;3.40;99.90;;;;;;5008072;28;20033;-65
2023/01/20 11:26:24;;;;;;;13.73;6.03;;;3.40;99.90;;;;;;5011919;28;21278;-66
2023/01/20 11:28:55;;;;;;;12.15;7.03;;;3.30;99.90;;;;;;4997803;28;20042;-65
2023/01/20 11:31:41;;;;;;;12.50;6.80;;;3.10;99.90;;;;;;5000592;28;20037;-65
2023/01/20 11:34:24;;;;;;;15.20;6.63;;;3.10;99.90;;;;;;5002719;28;20041;-66
2023/01/20 11:37:03;;;;;;;16.23;6.80;;;3.10;99.90;;;;;;5004744;28;20393;-65
2023/01/20 11:39:32;;;;;;;11.30;6.65;;;3.10;99.90;;;;;;5008922;28;20285;-65
2023/01/20 11:42:19;;;;;;;10.55;6.03;;;3.10;99.90;;;;;;5010973;28;20025;-66
2023/01/20 11:44:45;;;;;;;14.02;5.82;;;3.10;99.90;;;;;;4988344;28;20069;-65
2023/01/20 11:47:32;;;;;;;11.13;6.03;;;3.10;99.90;;;;;;5008103;28;20053;-67
2023/01/20 11:50:03;;;;;;;12.63;5.70;;;3.30;99.90;;;;;;5002428;28;20116;-66
2023/01/20 11:52:36;;;;;;;11.52;5.50;;;3.20;99.90;;;;;;5008498;28;20026;-65
2023/01/20 11:55:13;;;;;;;13.63;6.70;;;3.30;99.90;;;;;;5005828;28;20030;-65
2023/01/20 11:57:57;;;;;;;10.68;5.47;;;3.30;99.90;;;;;;5004166;28;20056;-65
2023/01/20 12:00:26;;;;;;;10.80;5.30;;;3.30;99.90;;;;;;5004362;28;20018;-65
2023/01/20 12:03:09;;;;;;;13.98;6.20;;;3.50;99.90;;;;;;5010910;28;20022;-67
2023/01/20 12:05:48;;;;;;;10.53;5.60;;;3.60;99.90;;;;;;5005423;28;20026;-65
2023/01/20 12:08:25;;;;;;;12.68;5.55;;;3.60;99.90;;;;;;4999538;28;20022;-66
2023/01/20 12:10:53;;;;;;;11.20;5.63;;;3.60;99.90;;;;;;5006463;28;20037;-65
2023/01/20 12:13:25;;;;;;;29.42;10.95;;;3.50;99.90;;;;;;5015155;28;20330;-65
2023/01/20 12:15:54;;;;;;;14.32;7.65;;;3.70;99.90;;;;;;5016218;28;20544;-66
2023/01/20 12:18:44;;;;;;;15.82;9.07;;;3.70;99.90;;;;;;5002347;28;20030;-65
2023/01/20 12:21:16;;;;;;;11.45;6.07;;;3.60;99.90;;;;;;5012158;28;20120;-65
2023/01/20 12:23:54;;;;;;;11.82;7.30;;;3.70;99.90;;;;;;5010372;28;20492;-64
2023/01/20 12:26:22;;;;;;;14.80;7.70;;;3.80;99.90;;;;;;5005252;28;20030;-65
2023/01/20 12:29:18;;;;;;;15.73;7.53;;;3.60;99.90;;;;;;4991586;28;20036;-65
2023/01/20 12:31:47;;;;;;;13.40;8.02;;;3.60;99.90;;;;;;5005541;28;20081;-65
2023/01/20 12:34:26;;;;;;;10.95;5.80;;;3.60;99.90;;;;;;5008662;28;20031;-67
2023/01/20 12:37:26;;;;;;;14.32;5.57;;;3.60;99.90;;;;;;5000265;28;20141;-65
2023/01/20 12:40:03;;;;;;;11.32;5.47;;;3.50;99.90;;;;;;5004940;28;20018;-65
2023/01/20 12:42:44;;;;;;;13.50;6.35;;;3.40;99.90;;;;;;4999672;28;20104;-65
2023/01/20 12:45:45;;;;;;;12.48;6.47;;;3.40;99.90;;;;;;4987656;28;20038;-65
2023/01/20 12:48:13;;;;;;;8.73;5.13;;;3.50;99.90;;;;;;5000221;28;20330;-65
2023/01/20 12:51:10;;;;;;;16.02;9.82;;;3.40;99.90;;;;;;5002302;28;20499;-66
2023/01/20 12:53:41;;;;;;;11.13;7.95;;;3.40;99.90;;;;;;5010134;28;20018;-65
2023/01/20 12:56:45;;;;;;;15.32;7.10;;;3.60;99.90;;;;;;5017128;28;20747;-64
2023/01/20 12:59:41;;;;;;;15.73;8.48;;;3.50;99.90;;;;;;5001405;28;20096;-66
2023/01/20 13:02:38;;;;;;;14.60;7.47;;;3.60;99.90;;;;;;5014036;28;20099;-65
2023/01/20 13:05:35;;;;;;;17.00;7.15;;;3.60;99.90;;;;;;5013003;28;20034;-65
2023/01/20 13:08:19;;;;;;;13.23;5.93;;;3.50;99.90;;;;;;4983253;28;20036;-65
2023/01/20 13:11:02;;;;;;;14.95;7.15;;;3.60;99.90;;;;;;5010611;28;20033;-65
2023/01/20 13:13:53;;;;;;;11.60;6.43;;;3.40;99.90;;;;;;4991156;28;20140;-64
2023/01/20 13:16:43;;;;;;;15.65;7.10;;;3.40;99.90;;;;;;5001940;28;20069;-66
2023/01/20 13:19:16;;;;;;;11.82;6.50;;;3.30;99.90;;;;;;5008603;28;20044;-65